Fayette, Illinois
Current Conditions -  °F | °C
As of 4:55 AM on Monday 20 Oct 2014 (Local Time) from KIJX Reporting Station
Clear Clear  
Wind Chill: 54°   Ceiling: Unl
Heat Index: 54°   Visibility: 10mi
Dew Point: 49°   Wind: 9mph
Humidity: 81%   Direction: 220°SW
Pressure: 29.91"   Gusts: NA
Location:  39.3647°N, 90.2158°W
Report Text: KIJX 200955Z AUTO 22008KT 10SM CLR 12/09 A2991 RMK AO2 T01230092
Loading
Personal Weather Stations






























Interactive Weather Map
Tropical Storm Tracking
New forecast layout! Learn more

10-Day Weather Forecast

Advertisements
Track Severe Weather on mobile